createdAt,value
2022-12-04T00:01:22.044Z,14.48
2022-12-04T00:03:52.462Z,13.52
2022-12-04T00:06:21.115Z,13.43
2022-12-04T00:08:48.791Z,12.73
2022-12-04T00:11:17.375Z,12.98
2022-12-04T00:13:45.091Z,13.70
2022-12-04T00:16:13.750Z,12.93
2022-12-04T00:18:41.098Z,13.18
2022-12-04T00:21:09.384Z,13.10
2022-12-04T00:23:37.352Z,13.80
2022-12-04T00:26:06.483Z,14.32
2022-12-04T00:28:33.858Z,14.32
2022-12-04T00:31:01.054Z,14.23
2022-12-04T00:33:28.824Z,13.15
2022-12-04T00:36:02.525Z,13.77
2022-12-04T00:38:30.102Z,13.75
2022-12-04T00:40:57.363Z,13.63
2022-12-04T00:43:24.678Z,14.50
2022-12-04T00:45:51.947Z,14.88
2022-12-04T00:48:19.370Z,14.32
2022-12-04T00:50:46.620Z,14.38
2022-12-04T00:53:14.145Z,14.55
2022-12-04T00:55:42.438Z,12.73
2022-12-04T00:58:09.700Z,14.35
2022-12-04T01:00:37.447Z,13.80
2022-12-04T01:03:04.905Z,13.27
2022-12-04T01:05:32.827Z,13.98
2022-12-04T01:08:00.151Z,15.38
2022-12-04T01:10:27.444Z,15.13
2022-12-04T01:12:54.684Z,13.30
2022-12-04T01:15:21.879Z,14.23
2022-12-04T01:17:49.092Z,13.55
2022-12-04T01:20:17.718Z,14.75
2022-12-04T01:22:44.934Z,14.65
2022-12-04T01:25:12.132Z,15.38
2022-12-04T01:27:39.352Z,15.73
2022-12-04T01:30:06.862Z,15.27
2022-12-04T01:32:34.070Z,14.18
2022-12-04T01:35:01.284Z,15.60
2022-12-04T01:37:30.693Z,16.10
2022-12-04T01:39:58.156Z,13.57
2022-12-04T01:42:25.441Z,16.40
2022-12-04T01:45:11.305Z,15.48
2022-12-04T01:47:38.478Z,16.58
2022-12-04T01:50:05.891Z,13.48
2022-12-04T01:52:33.105Z,17.40
2022-12-04T01:55:01.472Z,14.88
2022-12-04T01:57:31.895Z,16.50
2022-12-04T02:00:17.307Z,16.42
2022-12-04T02:02:46.718Z,14.43
2022-12-04T02:05:15.700Z,16.40
2022-12-04T02:07:44.035Z,16.40
2022-12-04T02:10:11.726Z,16.05
2022-12-04T02:12:57.702Z,18.10
2022-12-04T02:15:43.352Z,15.93
2022-12-04T02:18:15.956Z,17.17
2022-12-04T02:23:16.185Z,17.15
2022-12-04T02:25:43.814Z,17.98
2022-12-04T02:28:10.963Z,18.63
2022-12-04T02:30:40.005Z,18.23
2022-12-04T02:33:24.412Z,19.80
2022-12-04T02:35:54.870Z,20.52
2022-12-04T02:38:31.620Z,21.35
2022-12-04T02:41:19.064Z,20.23
2022-12-04T02:43:48.143Z,20.33
2022-12-04T02:46:31.385Z,21.30
2022-12-04T02:49:00.060Z,21.92
2022-12-04T02:51:29.227Z,22.75
2022-12-04T02:53:59.852Z,21.65
2022-12-04T02:56:29.161Z,22.15
2022-12-04T02:58:56.376Z,24.50
2022-12-04T03:01:37.277Z,23.20
2022-12-04T03:04:08.565Z,21.17
2022-12-04T03:06:37.817Z,22.48
2022-12-04T03:09:13.936Z,22.58
2022-12-04T03:11:43.978Z,21.98
2022-12-04T03:14:16.000Z,20.35
2022-12-04T03:16:43.728Z,23.45
2022-12-04T03:19:17.109Z,22.10
2022-12-04T03:21:51.350Z,20.77
2022-12-04T03:24:20.760Z,23.58
2022-12-04T03:26:48.922Z,21.50
2022-12-04T03:29:30.599Z,21.85
2022-12-04T03:32:14.468Z,21.35
2022-12-04T03:34:41.683Z,19.95
2022-12-04T03:37:10.989Z,18.15
2022-12-04T03:39:53.539Z,19.85
2022-12-04T03:42:23.485Z,18.83
2022-12-04T03:44:58.118Z,19.40
2022-12-04T03:47:30.880Z,18.75
2022-12-04T03:50:03.624Z,18.98
2022-12-04T03:52:35.692Z,18.95
2022-12-04T03:55:06.173Z,21.23
2022-12-04T03:57:34.893Z,19.23
2022-12-04T04:00:02.692Z,17.42
2022-12-04T04:02:33.731Z,18.50
2022-12-04T04:05:02.331Z,18.55
2022-12-04T04:07:35.604Z,18.42
2022-12-04T04:10:14.831Z,19.45
2022-12-04T04:13:08.308Z,17.45
2022-12-04T04:15:56.806Z,18.33
2022-12-04T04:18:43.096Z,16.63
2022-12-04T04:21:29.388Z,18.02
2022-12-04T04:24:14.966Z,17.27
2022-12-04T04:26:51.050Z,14.75
2022-12-04T04:29:18.250Z,17.67
2022-12-04T04:31:52.798Z,16.95
2022-12-04T04:34:23.841Z,15.90
2022-12-04T04:36:55.762Z,15.05
2022-12-04T04:39:29.028Z,16.77
2022-12-04T04:42:02.587Z,16.08
2022-12-04T04:44:32.830Z,15.23
2022-12-04T04:47:02.544Z,13.30
2022-12-04T04:49:32.224Z,15.38
2022-12-04T04:51:59.741Z,18.10
2022-12-04T04:54:27.858Z,17.33
2022-12-04T04:56:55.051Z,18.75
2022-12-04T04:59:22.341Z,18.23
2022-12-04T05:01:49.619Z,20.30
2022-12-04T05:04:17.007Z,20.73
2022-12-04T05:06:44.288Z,18.63
2022-12-04T05:09:11.481Z,20.05
2022-12-04T05:11:38.760Z,17.70
2022-12-04T05:14:06.225Z,19.15
2022-12-04T05:16:33.619Z,18.70
2022-12-04T05:19:19.488Z,17.92
2022-12-04T05:21:46.737Z,16.58
2022-12-04T05:24:13.938Z,16.02
2022-12-04T05:26:41.195Z,15.40
2022-12-04T05:29:08.367Z,15.70
2022-12-04T05:31:35.569Z,14.10
2022-12-04T05:34:02.860Z,12.20
2022-12-04T05:36:30.110Z,13.50
2022-12-04T05:38:57.254Z,12.00
2022-12-04T05:41:24.666Z,12.32
2022-12-04T05:43:51.856Z,11.25
2022-12-04T05:46:19.109Z,11.95
2022-12-04T05:48:46.344Z,13.63
2022-12-04T05:51:13.721Z,12.90
2022-12-04T05:53:40.976Z,9.35
2022-12-04T05:56:08.664Z,12.15
2022-12-04T05:58:39.092Z,11.20
2022-12-04T06:01:13.888Z,11.32
2022-12-04T06:03:41.266Z,10.90
2022-12-04T06:06:21.082Z,12.60
2022-12-04T06:08:49.298Z,10.13
2022-12-04T06:11:18.248Z,10.50
2022-12-04T06:13:46.047Z,9.23
2022-12-04T06:16:16.054Z,8.98
2022-12-04T06:18:43.640Z,8.68
2022-12-04T06:21:11.481Z,8.13
2022-12-04T06:23:38.684Z,9.48
2022-12-04T06:26:07.341Z,8.35
2022-12-04T06:28:35.141Z,8.68
2022-12-04T06:31:04.573Z,8.63
2022-12-04T06:33:32.244Z,10.60
2022-12-04T06:36:00.755Z,9.90
2022-12-04T06:38:28.315Z,9.02
2022-12-04T06:40:55.918Z,8.32
2022-12-04T06:43:23.312Z,10.05
2022-12-04T06:45:50.933Z,9.23
2022-12-04T06:48:18.280Z,9.55
2022-12-04T06:50:45.530Z,9.95
2022-12-04T06:53:12.847Z,9.05
2022-12-04T06:55:41.011Z,10.32
2022-12-04T06:58:08.252Z,7.78
2022-12-04T07:00:35.574Z,9.23
2022-12-04T07:03:02.901Z,7.15
2022-12-04T07:05:30.126Z,9.25
2022-12-04T07:07:57.427Z,9.45
2022-12-04T07:10:24.669Z,9.52
2022-12-04T07:12:53.026Z,9.15
2022-12-04T07:15:20.291Z,9.93
2022-12-04T07:17:47.589Z,11.45
2022-12-04T07:20:14.976Z,10.20
2022-12-04T07:22:42.166Z,11.75
2022-12-04T07:25:09.701Z,10.27
2022-12-04T07:27:36.882Z,10.02
2022-12-04T07:30:05.056Z,9.70
2022-12-04T07:32:32.539Z,9.65
2022-12-04T07:34:59.901Z,11.23
2022-12-04T07:37:27.111Z,8.02
2022-12-04T07:39:54.688Z,10.95
2022-12-04T07:42:24.436Z,10.05
2022-12-04T07:44:51.918Z,8.32
2022-12-04T07:47:21.427Z,10.60
2022-12-04T07:49:48.658Z,9.02
2022-12-04T07:52:15.817Z,10.77
2022-12-04T07:54:43.131Z,10.43
2022-12-04T07:57:10.315Z,10.25
2022-12-04T07:59:37.663Z,11.55
2022-12-04T08:02:06.751Z,9.48
2022-12-04T08:04:34.185Z,10.02
2022-12-04T08:07:01.478Z,7.70
2022-12-04T08:09:28.670Z,7.30
2022-12-04T08:11:55.983Z,8.32
2022-12-04T08:14:23.372Z,7.75
2022-12-04T08:16:52.938Z,7.95
2022-12-04T08:19:20.437Z,7.22
2022-12-04T08:21:47.652Z,8.50
2022-12-04T08:24:15.224Z,7.65
2022-12-04T08:26:42.789Z,8.70
2022-12-04T08:29:10.019Z,7.60
2022-12-04T08:31:37.439Z,7.72
2022-12-04T08:34:06.853Z,7.70
2022-12-04T08:36:34.442Z,7.28
2022-12-04T08:39:01.675Z,6.07
2022-12-04T08:41:29.184Z,6.85
2022-12-04T08:43:57.833Z,9.10
2022-12-04T08:46:26.396Z,7.07
2022-12-04T08:48:54.052Z,7.47
2022-12-04T08:51:22.760Z,7.03
2022-12-04T08:53:53.521Z,6.10
2022-12-04T08:56:20.744Z,7.80
2022-12-04T08:58:48.120Z,6.25
2022-12-04T09:01:15.851Z,6.10
2022-12-04T09:03:43.524Z,8.65
2022-12-04T09:06:11.492Z,7.35
2022-12-04T09:08:38.980Z,7.45
2022-12-04T09:11:09.012Z,9.00
2022-12-04T09:13:36.730Z,7.55
2022-12-04T09:16:05.705Z,8.95
2022-12-04T09:18:33.110Z,8.82
2022-12-04T09:21:01.786Z,9.75
2022-12-04T09:23:29.256Z,9.85
2022-12-04T09:25:56.547Z,7.88
2022-12-04T09:28:23.818Z,10.13
2022-12-04T09:31:17.336Z,9.90
2022-12-04T09:33:44.738Z,10.77
2022-12-04T09:36:18.293Z,9.43
2022-12-04T09:38:46.668Z,8.80
2022-12-04T09:41:34.472Z,11.13
2022-12-04T09:44:01.640Z,11.75
2022-12-04T09:46:40.157Z,9.70
2022-12-04T09:49:18.319Z,10.68
2022-12-04T09:51:45.865Z,11.60
2022-12-04T09:54:16.136Z,11.70
2022-12-04T09:56:44.875Z,9.15
2022-12-04T09:59:15.916Z,11.20
2022-12-04T10:01:45.904Z,10.85
2022-12-04T10:04:13.651Z,11.93
2022-12-04T10:06:48.553Z,11.75
2022-12-04T10:09:24.959Z,11.85
2022-12-04T10:12:04.416Z,11.57
2022-12-04T10:14:40.809Z,10.68
2022-12-04T10:17:18.555Z,11.38
2022-12-04T10:20:00.008Z,12.13
2022-12-04T10:22:46.286Z,13.38
2022-12-04T10:25:17.382Z,11.57
2022-12-04T10:28:02.712Z,12.80
2022-12-04T10:30:31.651Z,11.85
2022-12-04T10:33:00.935Z,12.00
2022-12-04T10:35:29.856Z,11.40
2022-12-04T10:38:16.117Z,12.82
2022-12-04T10:40:48.967Z,11.57
2022-12-04T10:43:21.211Z,12.23
2022-12-04T10:45:48.577Z,12.77
2022-12-04T10:48:24.884Z,13.77
2022-12-04T10:50:52.098Z,12.30
2022-12-04T10:53:21.139Z,11.82
2022-12-04T10:55:48.641Z,9.80
2022-12-04T10:58:20.537Z,10.52
2022-12-04T11:01:00.350Z,10.25
2022-12-04T11:03:29.185Z,10.02
2022-12-04T11:06:00.818Z,9.77
2022-12-04T11:08:31.872Z,9.55
2022-12-04T11:11:03.352Z,10.35
2022-12-04T11:13:30.737Z,10.60
2022-12-04T11:15:59.224Z,11.57
2022-12-04T11:18:31.466Z,11.32
2022-12-04T11:21:04.387Z,10.93
2022-12-04T11:23:35.936Z,11.45
2022-12-04T11:26:06.250Z,9.65
2022-12-04T11:28:41.519Z,11.35
2022-12-04T11:31:10.448Z,10.35
2022-12-04T11:33:37.869Z,9.85
2022-12-04T11:36:14.696Z,9.15
2022-12-04T11:38:41.886Z,11.40
2022-12-04T11:41:23.213Z,10.50
2022-12-04T11:43:53.080Z,10.30
2022-12-04T11:46:25.125Z,9.63
2022-12-04T11:48:52.842Z,10.18
2022-12-04T11:51:26.117Z,9.80
2022-12-04T11:53:55.097Z,10.27
2022-12-04T11:56:34.572Z,10.00
2022-12-04T11:59:07.979Z,9.82
2022-12-04T12:01:38.001Z,10.48
2022-12-04T12:04:23.729Z,10.05
2022-12-04T12:07:04.290Z,11.05
2022-12-04T12:09:37.383Z,8.90
2022-12-04T12:12:23.580Z,10.68
2022-12-04T12:14:57.024Z,10.07
2022-12-04T12:17:29.563Z,8.38
2022-12-04T12:19:57.042Z,9.13
2022-12-04T12:22:42.904Z,10.00
2022-12-04T12:25:20.564Z,9.05
2022-12-04T12:28:13.431Z,9.68
2022-12-04T12:31:05.395Z,10.93
2022-12-04T12:33:40.699Z,9.45
2022-12-04T12:36:09.890Z,8.50
2022-12-04T12:38:44.552Z,8.75
2022-12-04T12:41:24.103Z,7.65
2022-12-04T12:44:02.812Z,8.13
2022-12-04T12:46:33.017Z,8.15
2022-12-04T12:49:04.950Z,8.02
2022-12-04T12:51:38.322Z,7.70
2022-12-04T12:54:13.046Z,8.27
2022-12-04T12:56:49.187Z,7.85
2022-12-04T12:59:19.577Z,7.88
2022-12-04T13:01:49.954Z,9.52
2022-12-04T13:04:25.991Z,9.07
2022-12-04T13:06:58.964Z,8.18
2022-12-04T13:09:31.944Z,8.43
2022-12-04T13:12:09.474Z,8.18
2022-12-04T13:14:36.796Z,9.00
2022-12-04T13:17:12.251Z,8.30
2022-12-04T13:19:46.323Z,8.27
2022-12-04T13:22:30.160Z,8.43
2022-12-04T13:25:04.894Z,7.93
2022-12-04T13:27:38.063Z,10.00
2022-12-04T13:30:14.532Z,9.05
2022-12-04T13:32:41.811Z,8.63
2022-12-04T13:35:09.004Z,8.75
2022-12-04T13:37:36.201Z,10.73
2022-12-04T13:40:23.672Z,8.60
2022-12-04T13:42:50.893Z,8.60
2022-12-04T13:45:28.602Z,8.38
2022-12-04T13:48:00.072Z,7.72
2022-12-04T13:50:34.473Z,7.65
2022-12-04T13:53:02.406Z,8.07
2022-12-04T13:55:31.615Z,8.10
2022-12-04T13:58:00.597Z,6.53
2022-12-04T14:00:29.980Z,7.22
2022-12-04T14:02:58.742Z,7.30
2022-12-04T14:05:31.287Z,10.85
2022-12-04T14:08:17.218Z,7.40
2022-12-04T14:10:44.998Z,7.03
2022-12-04T14:13:24.212Z,7.28
2022-12-04T14:16:03.702Z,7.22
2022-12-04T14:18:31.271Z,6.82
2022-12-04T14:21:04.564Z,8.63
2022-12-04T14:23:36.320Z,7.88
2022-12-04T14:26:05.306Z,8.50
2022-12-04T14:28:37.303Z,7.43
2022-12-04T14:31:27.098Z,6.47
2022-12-04T14:33:57.721Z,7.65
2022-12-04T14:36:26.347Z,7.85
2022-12-04T14:39:02.770Z,8.50
2022-12-04T14:41:29.977Z,6.95
2022-12-04T14:43:57.618Z,7.78
2022-12-04T14:46:43.417Z,8.43
2022-12-04T14:49:20.418Z,7.78
2022-12-04T14:51:53.696Z,7.72
2022-12-04T14:54:39.933Z,7.32
2022-12-04T14:57:14.150Z,8.68
2022-12-04T14:59:41.579Z,8.20
2022-12-04T15:02:12.955Z,8.20
2022-12-04T15:04:45.932Z,8.35
2022-12-04T15:07:24.155Z,10.15
2022-12-04T15:10:20.508Z,8.57
2022-12-04T15:12:55.134Z,7.45
2022-12-04T15:15:27.716Z,7.95
2022-12-04T15:20:22.697Z,14.50
2022-12-04T15:22:50.406Z,6.85
2022-12-04T15:25:19.988Z,6.22
2022-12-04T15:27:48.404Z,6.53
2022-12-04T15:30:19.988Z,6.20
2022-12-04T15:32:48.474Z,6.75
2022-12-04T15:35:27.842Z,5.55
2022-12-04T15:37:55.392Z,6.82
2022-12-04T15:40:24.223Z,6.22
2022-12-04T15:42:51.736Z,4.95
2022-12-04T15:45:19.025Z,8.52
2022-12-04T15:47:46.182Z,5.90
2022-12-04T15:50:16.141Z,7.78
2022-12-04T15:52:55.703Z,5.85
2022-12-04T15:55:24.294Z,6.53
2022-12-04T15:57:53.615Z,7.03
2022-12-04T16:00:29.320Z,7.20
2022-12-04T16:02:57.089Z,7.40
2022-12-04T16:05:24.281Z,7.78
2022-12-04T16:07:52.987Z,7.78
2022-12-04T16:10:25.198Z,8.27
2022-12-04T16:12:56.434Z,8.77
2022-12-04T16:15:24.685Z,7.53
2022-12-04T16:17:51.947Z,7.57
2022-12-04T16:20:19.208Z,7.35
2022-12-04T16:22:46.744Z,7.88
2022-12-04T16:25:14.037Z,8.02
2022-12-04T16:27:41.312Z,8.77
2022-12-04T16:30:09.449Z,7.72
2022-12-04T16:32:36.780Z,9.63
2022-12-04T16:35:04.099Z,7.82
2022-12-04T16:37:31.786Z,8.15
2022-12-04T16:39:59.422Z,8.65
2022-12-04T16:42:27.887Z,9.05
2022-12-04T16:44:55.737Z,7.68
2022-12-04T16:47:23.344Z,8.52
2022-12-04T16:49:51.457Z,8.50
2022-12-04T16:52:19.686Z,9.20
2022-12-04T16:54:47.376Z,9.50
2022-12-04T16:57:14.553Z,9.50
2022-12-04T16:59:42.493Z,9.13
2022-12-04T17:02:17.992Z,9.68
2022-12-04T17:04:45.968Z,9.93
2022-12-04T17:07:13.242Z,8.10
2022-12-04T17:09:40.437Z,8.85
2022-12-04T17:12:07.705Z,9.68
2022-12-04T17:14:35.658Z,8.35
2022-12-04T17:17:02.908Z,8.80
2022-12-04T17:19:30.233Z,9.27
2022-12-04T17:21:58.369Z,8.63
2022-12-04T17:24:25.631Z,8.90
2022-12-04T17:26:52.986Z,7.85
2022-12-04T17:29:20.208Z,8.20
2022-12-04T17:31:47.589Z,7.55
2022-12-04T17:34:16.487Z,9.35
2022-12-04T17:36:43.686Z,12.70
2022-12-04T17:39:13.009Z,12.00
2022-12-04T17:41:40.226Z,8.32
2022-12-04T17:44:07.543Z,9.25
2022-12-04T17:46:34.908Z,9.88
2022-12-04T17:49:06.821Z,9.52
2022-12-04T17:51:35.800Z,9.68
2022-12-04T17:54:03.212Z,9.45
2022-12-04T17:56:30.503Z,9.60
2022-12-04T17:58:57.751Z,9.75
2022-12-04T18:01:26.356Z,10.13
2022-12-04T18:03:54.731Z,9.85
2022-12-04T18:06:23.652Z,10.13
2022-12-04T18:08:51.535Z,9.82
2022-12-04T18:11:20.852Z,11.43
2022-12-04T18:13:50.181Z,10.32
2022-12-04T18:16:17.442Z,10.40
2022-12-04T18:18:47.159Z,11.50
2022-12-04T18:21:15.234Z,9.50
2022-12-04T18:23:45.980Z,11.65
2022-12-04T18:26:20.915Z,10.43
2022-12-04T18:28:48.772Z,10.73
2022-12-04T18:31:16.663Z,10.05
2022-12-04T18:33:44.263Z,8.68
2022-12-04T18:36:15.911Z,8.93
2022-12-04T18:38:43.260Z,10.93
2022-12-04T18:41:11.892Z,10.25
2022-12-04T18:43:40.062Z,11.15
2022-12-04T18:46:09.198Z,10.32
2022-12-04T18:48:36.806Z,10.32
2022-12-04T18:51:14.319Z,11.75
2022-12-04T18:53:41.592Z,11.27
2022-12-04T18:56:08.887Z,12.73
2022-12-04T18:58:36.106Z,11.98
2022-12-04T19:01:07.464Z,11.73
2022-12-04T19:03:35.006Z,12.25
2022-12-04T19:06:02.808Z,13.32
2022-12-04T19:08:33.774Z,12.98
2022-12-04T19:11:07.602Z,13.13
2022-12-04T19:13:35.266Z,11.88
2022-12-04T19:16:02.977Z,12.82
2022-12-04T19:18:30.711Z,12.55
2022-12-04T19:20:57.984Z,12.05
2022-12-04T19:23:25.318Z,11.90
2022-12-04T19:25:56.656Z,12.95
2022-12-04T19:28:24.532Z,12.73
2022-12-04T19:30:52.041Z,11.70
2022-12-04T19:33:19.660Z,13.10
2022-12-04T19:35:57.192Z,13.50
2022-12-04T19:38:24.703Z,13.32
2022-12-04T19:41:02.117Z,13.85
2022-12-04T19:43:29.482Z,11.10
2022-12-04T19:45:56.817Z,12.00
2022-12-04T19:48:24.120Z,11.20
2022-12-04T19:50:51.399Z,12.77
2022-12-04T19:53:18.719Z,12.05
2022-12-04T19:55:45.941Z,12.50
2022-12-04T19:58:13.734Z,11.95
2022-12-04T20:00:41.011Z,14.57
2022-12-04T20:03:08.543Z,13.43
2022-12-04T20:05:39.926Z,13.68
2022-12-04T20:10:35.792Z,12.95
2022-12-04T20:13:03.236Z,13.82
2022-12-04T20:15:30.501Z,13.90
2022-12-04T20:17:58.101Z,12.95
2022-12-04T20:20:25.292Z,12.77
2022-12-04T20:22:52.569Z,12.35
2022-12-04T20:25:19.792Z,13.85
2022-12-04T20:27:46.979Z,13.50
2022-12-04T20:30:14.236Z,13.70
2022-12-04T20:32:41.484Z,13.07
2022-12-04T20:35:08.998Z,13.50
2022-12-04T20:37:36.863Z,14.30
2022-12-04T20:40:07.562Z,13.05
2022-12-04T20:42:35.685Z,14.23
2022-12-04T20:45:02.956Z,14.15
2022-12-04T20:47:30.244Z,13.77
2022-12-04T20:49:57.598Z,12.43
2022-12-04T20:52:24.947Z,12.60
2022-12-04T20:54:52.195Z,12.88
2022-12-04T20:57:19.376Z,12.20
2022-12-04T20:59:46.601Z,13.35
2022-12-04T21:02:13.978Z,13.82
2022-12-04T21:04:41.741Z,12.45
2022-12-04T21:07:09.026Z,14.25
2022-12-04T21:09:36.374Z,13.70
2022-12-04T21:12:23.812Z,14.60
2022-12-04T21:15:09.544Z,13.32
2022-12-04T21:17:36.712Z,12.43
2022-12-04T21:20:07.723Z,12.57
2022-12-04T21:22:36.639Z,13.38
2022-12-04T21:25:04.603Z,11.85
2022-12-04T21:27:31.861Z,13.57
2022-12-04T21:29:59.972Z,13.60
2022-12-04T21:32:27.208Z,13.38
2022-12-04T21:34:54.444Z,14.55
2022-12-04T21:37:21.618Z,12.68
2022-12-04T21:39:48.999Z,13.98
2022-12-04T21:42:31.633Z,13.27
2022-12-04T21:45:02.283Z,12.40
2022-12-04T21:47:30.392Z,11.40
2022-12-04T21:49:58.073Z,13.90
2022-12-04T21:52:25.691Z,12.00
2022-12-04T21:54:53.354Z,13.90
2022-12-04T21:57:21.048Z,11.85
2022-12-04T21:59:48.755Z,13.02
2022-12-04T22:02:16.347Z,11.40
2022-12-04T22:04:44.787Z,10.20
2022-12-04T22:07:12.420Z,11.60
2022-12-04T22:09:39.751Z,12.20
2022-12-04T22:12:26.366Z,10.88
2022-12-04T22:14:54.464Z,12.63
2022-12-04T22:17:21.639Z,13.80
2022-12-04T22:19:48.852Z,12.98
2022-12-04T22:22:16.559Z,11.20
2022-12-04T22:24:44.061Z,11.93
2022-12-04T22:27:14.915Z,12.40
2022-12-04T22:29:50.390Z,11.23
2022-12-04T22:32:28.641Z,12.57
2022-12-04T22:34:55.925Z,11.45
2022-12-04T22:37:23.968Z,12.60
2022-12-04T22:39:51.216Z,12.00
2022-12-04T22:42:18.411Z,13.20
2022-12-04T22:44:45.709Z,11.55
2022-12-04T22:47:13.000Z,12.43
2022-12-04T22:49:40.175Z,12.38
2022-12-04T22:52:07.481Z,12.43
2022-12-04T22:54:34.725Z,11.50
2022-12-04T22:57:01.914Z,11.63
2022-12-04T22:59:29.310Z,11.57
2022-12-04T23:01:56.614Z,11.95
2022-12-04T23:04:23.959Z,12.20
2022-12-04T23:06:51.193Z,12.75
2022-12-04T23:09:18.972Z,12.45
2022-12-04T23:11:46.241Z,12.27
2022-12-04T23:14:14.866Z,11.85
2022-12-04T23:16:42.700Z,12.25
2022-12-04T23:19:11.908Z,12.38
2022-12-04T23:21:39.699Z,12.15
2022-12-04T23:24:06.951Z,11.85
2022-12-04T23:26:35.921Z,12.02
2022-12-04T23:29:05.325Z,12.57
2022-12-04T23:31:37.404Z,12.23
2022-12-04T23:34:05.119Z,11.82
2022-12-04T23:36:32.503Z,12.75
2022-12-04T23:38:59.706Z,12.13
2022-12-04T23:41:28.588Z,13.13
2022-12-04T23:43:55.855Z,12.18
2022-12-04T23:46:25.001Z,12.57
2022-12-04T23:48:52.237Z,12.32
2022-12-04T23:51:20.087Z,11.65
2022-12-04T23:53:47.771Z,12.57
2022-12-04T23:56:14.939Z,12.40
2022-12-04T23:58:42.591Z,11.93
